Time,TemperatureF,DewpointF,PressureIn,WindDirection,WindDirectionDegrees,WindSpeedMPH,WindSpeedGustMPH,Humidity,HourlyPrecipIn,Conditions,Clouds,dailyrainin,SoftwareType,DateUTC
2015-08-28 00:04:00,59.7,57.0,30.07,SSE,149,4.0,8.0,91,0.00,,,0.00,weatherlink.com 1.10,2015-08-28 05:04:00,
2015-08-28 00:09:00,59.6,57.0,30.07,South,171,4.0,9.0,91,0.00,,BKN250,0.00,VWS V15.00,2015-08-28 05:09:00,
2015-08-28 00:14:00,59.5,56.9,30.07,SSW,198,4.0,9.0,91,0.00,,BKN250,0.00,VWS V15.00,2015-08-28 05:14:00,
2015-08-28 00:19:00,59.4,56.8,30.07,South,185,5.0,9.0,91,0.00,,BKN250,0.00,VWS V15.00,2015-08-28 05:19:00,
2015-08-28 00:24:00,59.4,56.8,30.08,South,186,4.0,7.0,91,0.00,,BKN250,0.00,VWS V15.00,2015-08-28 05:24:00,
2015-08-28 00:29:00,59.3,56.7,30.08,SSW,198,4.0,8.0,91,0.00,,BKN250,0.00,VWS V15.00,2015-08-28 05:29:00,
2015-08-28 00:34:00,59.2,56.6,30.07,SSE,162,5.0,8.0,91,0.00,,BKN250,0.00,VWS V15.00,2015-08-28 05:34:00,
2015-08-28 00:39:00,59.2,56.6,30.07,SSE,155,3.0,8.0,91,0.00,,CLR,0.00,VWS V15.00,2015-08-28 05:39:00,
2015-08-28 00:44:00,59.2,56.6,30.07,South,188,5.0,9.0,91,0.00,,CLR,0.00,VWS V15.00,2015-08-28 05:44:00,
2015-08-28 00:49:00,59.2,56.6,30.07,South,176,4.0,9.0,91,0.00,,CLR,0.00,VWS V15.00,2015-08-28 05:49:00,
2015-08-28 00:54:00,59.2,56.6,30.07,South,188,4.0,11.0,91,0.00,,CLR,0.00,VWS V15.00,2015-08-28 05:54:00,
2015-08-28 00:59:00,59.1,56.5,30.07,South,182,3.0,11.0,91,0.00,,CLR,0.00,VWS V15.00,2015-08-28 05:59:00,
2015-08-28 01:04:00,59.1,56.5,30.07,SW,218,3.0,8.0,91,0.00,,CLR,0.00,VWS V15.00,2015-08-28 06:04:00,
2015-08-28 01:09:00,59.1,56.5,30.07,SSW,196,4.0,9.0,91,0.00,,CLR,0.00,VWS V15.00,2015-08-28 06:09:00,
2015-08-28 01:14:00,59.0,56.4,30.07,SSW,196,5.0,6.0,91,0.00,,CLR,0.00,VWS V15.00,2015-08-28 06:14:00,
2015-08-28 01:19:00,59.0,56.4,30.07,South,181,4.0,6.0,91,0.00,,CLR,0.00,VWS V15.00,2015-08-28 06:19:00,
2015-08-28 01:24:00,59.0,56.4,30.07,South,182,5.0,8.0,91,0.00,,CLR,0.00,VWS V15.00,2015-08-28 06:24:00,
2015-08-28 01:29:00,58.9,56.3,30.06,SSW,204,4.0,9.0,91,0.00,,CLR,0.00,VWS V15.00,2015-08-28 06:29:00,
2015-08-28 01:34:00,58.9,56.3,30.06,SSW,213,5.0,8.0,91,0.00,,CLR,0.00,VWS V15.00,2015-08-28 06:34:00,
2015-08-28 01:39:00,58.8,56.2,30.06,SSE,149,4.0,8.0,91,0.00,,CLR,0.00,VWS V15.00,2015-08-28 06:39:00,
2015-08-28 01:44:00,58.7,56.1,30.06,SE,146,5.0,8.0,91,0.00,,CLR,0.00,VWS V15.00,2015-08-28 06:44:00,
2015-08-28 01:49:00,58.7,56.1,30.06,SSE,157,1.0,8.0,91,0.00,,CLR,0.00,VWS V15.00,2015-08-28 06:49:00,
2015-08-28 01:54:00,58.7,56.1,30.06,SSW,211,2.0,6.0,91,0.00,,CLR,0.00,VWS V15.00,2015-08-28 06:54:00,
2015-08-28 01:59:00,58.6,56.0,30.06,SSW,195,2.0,6.0,91,0.00,,CLR,0.00,VWS V15.00,2015-08-28 06:59:00,
2015-08-28 02:04:00,58.6,56.0,30.06,SSW,193,3.0,8.0,91,0.00,,CLR,0.00,VWS V15.00,2015-08-28 07:04:00,
2015-08-28 02:09:00,58.5,56.2,30.06,SSW,200,3.0,8.0,92,0.00,,CLR,0.00,VWS V15.00,2015-08-28 07:09:00,
2015-08-28 02:14:00,58.5,56.2,30.06,SSW,212,2.0,7.0,92,0.00,,CLR,0.00,VWS V15.00,2015-08-28 07:14:00,
2015-08-28 02:19:00,58.5,56.2,30.06,SSW,203,2.0,7.0,92,0.00,,CLR,0.00,VWS V15.00,2015-08-28 07:19:00,
2015-08-28 02:24:00,58.5,56.2,30.06,SSE,151,4.0,5.0,92,0.00,,CLR,0.00,VWS V15.00,2015-08-28 07:24:00,
2015-08-28 02:29:00,58.4,56.1,30.06,South,185,2.0,5.0,92,0.00,,CLR,0.00,VWS V15.00,2015-08-28 07:29:00,
2015-08-28 02:34:00,58.4,56.1,30.06,South,180,3.0,6.0,92,0.00,,CLR,0.00,VWS V15.00,2015-08-28 07:34:00,
2015-08-28 02:39:00,58.4,56.1,30.06,South,180,3.0,6.0,92,0.00,,CLR,0.00,VWS V15.00,2015-08-28 07:39:00,
2015-08-28 02:44:00,58.4,56.1,30.06,South,181,1.0,6.0,92,0.00,,CLR,0.00,VWS V15.00,2015-08-28 07:44:00,
2015-08-28 02:49:00,58.4,56.1,30.06,South,191,2.0,6.0,92,0.00,,CLR,0.00,VWS V15.00,2015-08-28 07:49:00,
2015-08-28 02:54:00,58.4,56.1,30.06,South,179,2.0,7.0,92,0.00,,CLR,0.00,VWS V15.00,2015-08-28 07:54:00,
2015-08-28 02:59:00,58.3,56.0,30.06,SSW,203,1.0,7.0,92,0.00,,CLR,0.00,VWS V15.00,2015-08-28 07:59:00,
2015-08-28 03:04:00,58.3,56.0,30.06,SSW,210,5.0,7.0,92,0.00,,CLR,0.00,VWS V15.00,2015-08-28 08:04:00,
2015-08-28 03:09:00,58.3,56.3,30.06,SSW,203,3.0,7.0,93,0.00,,CLR,0.00,VWS V15.00,2015-08-28 08:09:00,
2015-08-28 03:14:00,58.3,56.3,30.06,SSW,205,6.0,6.0,93,0.00,,CLR,0.00,VWS V15.00,2015-08-28 08:14:00,
2015-08-28 03:19:00,58.3,56.3,30.07,South,183,0.0,6.0,93,0.00,,CLR,0.00,VWS V15.00,2015-08-28 08:19:00,
2015-08-28 03:24:00,58.3,56.3,30.06,South,186,3.0,5.0,93,0.00,,CLR,0.00,VWS V15.00,2015-08-28 08:24:00,
2015-08-28 03:29:00,58.3,56.3,30.06,SSW,197,4.0,5.0,93,0.00,,CLR,0.00,VWS V15.00,2015-08-28 08:29:00,
2015-08-28 03:34:00,58.3,56.3,30.06,South,182,5.0,8.0,93,0.00,,CLR,0.00,VWS V15.00,2015-08-28 08:34:00,
2015-08-28 03:39:00,58.3,56.0,30.06,South,190,2.0,8.0,92,0.00,,CLR,0.00,VWS V15.00,2015-08-28 08:39:00,
2015-08-28 03:44:00,58.3,56.0,30.06,SSE,157,5.0,10.0,92,0.00,,CLR,0.00,VWS V15.00,2015-08-28 08:44:00,
2015-08-28 03:49:00,58.4,56.4,30.06,South,172,3.0,10.0,93,0.00,,CLR,0.00,VWS V15.00,2015-08-28 08:49:00,
2015-08-28 03:54:00,58.4,56.1,30.06,SSE,158,5.0,7.0,92,0.00,,CLR,0.00,VWS V15.00,2015-08-28 08:54:00,
2015-08-28 03:59:00,58.5,56.2,30.06,South,183,3.0,7.0,92,0.00,,CLR,0.00,VWS V15.00,2015-08-28 08:59:00,
2015-08-28 04:04:00,58.5,56.2,30.06,South,178,3.0,7.0,92,0.00,,CLR,0.00,VWS V15.00,2015-08-28 09:04:00,
2015-08-28 04:09:00,58.6,56.3,30.06,South,171,4.0,9.0,92,0.00,,CLR,0.00,VWS V15.00,2015-08-28 09:09:00,
2015-08-28 04:14:00,58.6,56.3,30.06,SSW,207,0.0,6.0,92,0.00,,CLR,0.00,VWS V15.00,2015-08-28 09:14:00,
2015-08-28 04:19:00,58.7,56.4,30.07,SSW,194,0.0,7.0,92,0.00,,CLR,0.00,VWS V15.00,2015-08-28 09:19:00,
2015-08-28 04:24:00,58.7,56.4,30.08,SW,223,3.0,7.0,92,0.00,,CLR,0.00,VWS V15.00,2015-08-28 09:24:00,
2015-08-28 04:29:00,58.8,56.5,30.07,SSW,192,1.0,7.0,92,0.00,,CLR,0.00,VWS V15.00,2015-08-28 09:29:00,
2015-08-28 04:34:00,58.9,56.6,30.07,SSW,201,2.0,5.0,92,0.00,,CLR,0.00,VWS V15.00,2015-08-28 09:34:00,
2015-08-28 04:39:00,58.9,56.6,30.07,South,173,3.0,5.0,92,0.00,,CLR,0.00,VWS V15.00,2015-08-28 09:39:00,
2015-08-28 04:44:00,58.9,56.6,30.07,South,177,3.0,5.0,92,0.00,,CLR,0.00,VWS V15.00,2015-08-28 09:44:00,
2015-08-28 04:49:00,59.0,56.7,30.07,SE,137,5.0,5.0,92,0.00,,CLR,0.00,VWS V15.00,2015-08-28 09:49:00,
2015-08-28 04:54:00,59.0,56.7,30.07,SSW,202,0.0,7.0,92,0.00,,CLR,0.00,VWS V15.00,2015-08-28 09:54:00,
2015-08-28 04:59:00,59.0,56.7,30.08,SSW,204,3.0,7.0,92,0.00,,CLR,0.00,VWS V15.00,2015-08-28 09:59:00,
2015-08-28 05:04:00,59.1,56.8,30.08,South,189,1.0,4.0,92,0.00,,CLR,0.00,VWS V15.00,2015-08-28 10:04:00,
2015-08-28 05:09:00,59.1,56.8,30.08,South,189,2.0,4.0,92,0.00,,CLR,0.00,VWS V15.00,2015-08-28 10:09:00,
2015-08-28 05:14:00,59.1,56.8,30.07,South,189,1.0,3.0,92,0.00,,CLR,0.00,VWS V15.00,2015-08-28 10:14:00,
2015-08-28 05:19:00,59.1,56.8,30.07,South,189,3.0,4.0,92,0.00,,CLR,0.00,VWS V15.00,2015-08-28 10:19:00,
2015-08-28 05:24:00,59.0,56.7,30.07,South,191,2.0,3.0,92,0.00,,CLR,0.00,VWS V15.00,2015-08-28 10:24:00,
2015-08-28 05:29:00,59.0,56.7,30.07,South,173,1.0,4.0,92,0.00,,CLR,0.00,VWS V15.00,2015-08-28 10:29:00,
2015-08-28 05:34:00,58.9,56.6,30.07,SSW,194,2.0,5.0,92,0.00,,CLR,0.00,VWS V15.00,2015-08-28 10:34:00,
2015-08-28 05:39:00,58.9,56.6,30.07,South,188,2.0,5.0,92,0.00,,CLR,0.00,VWS V15.00,2015-08-28 10:39:00,
2015-08-28 05:44:00,58.8,56.5,30.07,South,184,4.0,7.0,92,0.00,,CLR,0.00,VWS V15.00,2015-08-28 10:44:00,
2015-08-28 05:49:00,58.7,56.4,30.07,South,175,2.0,7.0,92,0.00,,CLR,0.00,VWS V15.00,2015-08-28 10:49:00,
2015-08-28 05:54:00,58.6,56.3,30.07,SSE,148,5.0,5.0,92,0.00,,CLR,0.00,VWS V15.00,2015-08-28 10:54:00,
2015-08-28 05:59:00,58.5,56.2,30.07,South,186,3.0,6.0,92,0.00,,CLR,0.00,VWS V15.00,2015-08-28 10:59:00,
2015-08-28 06:04:00,58.5,56.5,30.06,South,180,2.0,7.0,93,0.00,,CLR,0.00,VWS V15.00,2015-08-28 11:04:00,
2015-08-28 06:09:00,58.5,56.5,30.07,South,186,1.0,7.0,93,0.00,,CLR,0.00,VWS V15.00,2015-08-28 11:09:00,
2015-08-28 06:14:00,58.5,56.5,30.07,South,188,3.0,7.0,93,0.00,,CLR,0.00,VWS V15.00,2015-08-28 11:14:00,
2015-08-28 06:19:00,58.5,56.5,30.07,South,181,2.0,7.0,93,0.00,,CLR,0.00,VWS V15.00,2015-08-28 11:19:00,
2015-08-28 06:24:00,58.6,56.6,30.07,South,173,1.0,6.0,93,0.00,,CLR,0.00,VWS V15.00,2015-08-28 11:24:00,
2015-08-28 06:29:00,58.6,56.6,30.07,SSW,200,3.0,6.0,93,0.00,,CLR,0.00,VWS V15.00,2015-08-28 11:29:00,
2015-08-28 06:34:00,58.6,56.6,30.07,SSW,195,3.0,4.0,93,0.00,,CLR,0.00,VWS V15.00,2015-08-28 11:34:00,
2015-08-28 06:39:00,58.6,56.6,30.07,South,186,3.0,5.0,93,0.00,,BKN200,0.00,VWS V15.00,2015-08-28 11:39:00,
2015-08-28 06:44:00,58.6,56.6,30.07,SW,217,3.0,5.0,93,0.00,,BKN200,0.00,VWS V15.00,2015-08-28 11:44:00,
2015-08-28 06:49:00,58.6,56.6,30.07,SSE,167,4.0,5.0,93,0.00,,BKN200,0.00,VWS V15.00,2015-08-28 11:49:00,
2015-08-28 06:54:00,58.6,56.6,30.07,SW,215,3.0,6.0,93,0.00,,BKN200,0.00,VWS V15.00,2015-08-28 11:54:00,
2015-08-28 06:59:00,58.6,56.6,30.07,South,172,3.0,7.0,93,0.00,,BKN200,0.00,VWS V15.00,2015-08-28 11:59:00,
2015-08-28 07:04:00,58.6,56.6,30.08,South,188,4.0,7.0,93,0.00,,BKN200,0.00,VWS V15.00,2015-08-28 12:04:00,
2015-08-28 07:09:00,58.7,56.7,30.08,SSW,212,7.0,7.0,93,0.00,,BKN200,0.00,VWS V15.00,2015-08-28 12:09:00,
2015-08-28 07:14:00,58.7,56.7,30.08,South,186,3.0,5.0,93,0.00,,BKN200,0.00,VWS V15.00,2015-08-28 12:14:00,
2015-08-28 07:19:00,58.8,56.8,30.08,SSW,199,3.0,9.0,93,0.00,,BKN200,0.00,VWS V15.00,2015-08-28 12:19:00,
2015-08-28 07:24:00,58.9,56.9,30.08,South,171,4.0,8.0,93,0.00,,BKN200,0.00,VWS V15.00,2015-08-28 12:24:00,
2015-08-28 07:29:00,58.9,56.9,30.07,SSW,192,5.0,8.0,93,0.00,,BKN200,0.00,VWS V15.00,2015-08-28 12:29:00,
2015-08-28 07:34:00,58.9,56.9,30.07,South,181,3.0,8.0,93,0.00,,BKN200,0.00,VWS V15.00,2015-08-28 12:34:00,
2015-08-28 07:39:00,58.9,56.9,30.07,SW,217,3.0,8.0,93,0.00,,,0.00,VWS V15.00,2015-08-28 12:39:00,
2015-08-28 07:44:00,59.0,57.0,30.07,SSW,209,2.0,6.0,93,0.00,,,0.00,VWS V15.00,2015-08-28 12:44:00,
2015-08-28 07:49:00,59.1,57.1,30.07,South,185,4.0,7.0,93,0.00,,,0.00,VWS V15.00,2015-08-28 12:49:00,
2015-08-28 07:54:00,59.1,57.4,30.07,South,189,3.0,6.0,94,0.00,,,0.00,VWS V15.00,2015-08-28 12:54:00,
2015-08-28 07:59:00,59.1,57.1,30.07,SSW,192,3.0,7.0,93,0.00,,,0.00,VWS V15.00,2015-08-28 12:59:00,
2015-08-28 08:04:00,59.2,57.2,30.07,South,175,8.0,8.0,93,0.00,,,0.00,VWS V15.00,2015-08-28 13:04:00,
2015-08-28 08:09:00,59.3,57.3,30.07,SSE,150,4.0,8.0,93,0.00,,,0.00,VWS V15.00,2015-08-28 13:09:00,
2015-08-28 08:14:00,59.4,57.4,30.07,South,182,7.0,8.0,93,0.00,,,0.00,VWS V15.00,2015-08-28 13:14:00,
2015-08-28 08:19:00,59.5,57.5,30.06,SSW,202,4.0,9.0,93,0.00,,,0.00,VWS V15.00,2015-08-28 13:19:00,
2015-08-28 08:24:00,59.6,57.6,30.06,South,175,3.0,9.0,93,0.00,,,0.00,VWS V15.00,2015-08-28 13:24:00,
2015-08-28 08:29:00,59.6,57.6,30.06,SSE,160,2.0,9.0,93,0.00,,,0.00,VWS V15.00,2015-08-28 13:29:00,
2015-08-28 08:34:00,59.7,57.7,30.06,South,178,4.0,7.0,93,0.00,,,0.00,VWS V15.00,2015-08-28 13:34:00,
2015-08-28 08:39:00,59.8,57.8,30.06,South,171,8.0,9.0,93,0.00,,OVC220,0.00,VWS V15.00,2015-08-28 13:39:00,
2015-08-28 08:44:00,59.9,57.9,30.06,South,188,4.0,5.0,93,0.00,,OVC220,0.00,VWS V15.00,2015-08-28 13:44:00,
2015-08-28 08:49:00,60.0,58.0,30.06,SSW,209,2.0,9.0,93,0.00,,OVC220,0.00,VWS V15.00,2015-08-28 13:49:00,
2015-08-28 08:54:00,60.0,58.0,30.06,South,181,2.0,6.0,93,0.00,,OVC220,0.00,VWS V15.00,2015-08-28 13:54:00,
2015-08-28 08:59:00,60.1,58.1,30.06,SW,220,3.0,9.0,93,0.00,,OVC220,0.00,VWS V15.00,2015-08-28 13:59:00,
2015-08-28 09:04:00,60.3,58.3,30.06,SSW,206,7.0,7.0,93,0.00,,OVC220,0.00,VWS V15.00,2015-08-28 14:04:00,
2015-08-28 09:09:00,60.4,58.4,30.07,SSW,202,2.0,7.0,93,0.00,,OVC220,0.00,VWS V15.00,2015-08-28 14:09:00,
2015-08-28 09:14:00,60.5,58.5,30.07,South,190,3.0,5.0,93,0.00,,OVC220,0.00,VWS V15.00,2015-08-28 14:14:00,
2015-08-28 09:19:00,60.6,58.6,30.07,South,188,0.0,8.0,93,0.00,,OVC220,0.00,VWS V15.00,2015-08-28 14:19:00,
2015-08-28 09:24:00,60.7,58.7,30.07,South,175,2.0,5.0,93,0.00,,OVC220,0.00,VWS V15.00,2015-08-28 14:24:00,
2015-08-28 09:29:00,60.8,58.8,30.07,SW,226,3.0,5.0,93,0.00,,OVC220,0.00,VWS V15.00,2015-08-28 14:29:00,
2015-08-28 09:34:00,60.9,58.9,30.07,SW,217,0.0,3.0,93,0.00,,OVC220,0.00,VWS V15.00,2015-08-28 14:34:00,
2015-08-28 09:39:00,61.0,59.0,30.07,SSW,213,1.0,4.0,93,0.00,,OVC200,0.00,VWS V15.00,2015-08-28 14:39:00,
2015-08-28 09:44:00,61.1,59.1,30.08,South,173,0.0,5.0,93,0.00,,OVC200,0.00,VWS V15.00,2015-08-28 14:44:00,
2015-08-28 09:49:00,61.2,59.2,30.08,South,173,0.0,5.0,93,0.00,,OVC200,0.00,VWS V15.00,2015-08-28 14:49:00,
2015-08-28 09:54:00,61.3,59.3,30.08,South,173,0.0,0.0,93,0.00,,OVC200,0.00,VWS V15.00,2015-08-28 14:54:00,
2015-08-28 09:59:00,61.4,59.4,30.08,South,173,0.0,0.0,93,0.00,,OVC200,0.00,VWS V15.00,2015-08-28 14:59:00,
2015-08-28 10:04:00,61.5,59.5,30.08,South,173,1.0,2.0,93,0.00,,OVC200,0.00,VWS V15.00,2015-08-28 15:04:00,
2015-08-28 10:08:00,61.6,59.3,30.08,South,173,0.0,3.0,92,0.00,,OVC200,0.00,VWS V15.00,2015-08-28 15:08:00,
2015-08-28 10:14:00,61.7,59.4,30.08,South,173,0.0,0.0,92,0.00,,OVC200,0.00,VWS V15.00,2015-08-28 15:14:00,
2015-08-28 10:19:00,61.8,59.5,30.08,South,173,0.0,0.0,92,0.00,,OVC200,0.00,VWS V15.00,2015-08-28 15:19:00,
2015-08-28 10:24:00,62.0,59.3,30.09,South,173,0.0,0.0,91,0.00,,OVC200,0.00,VWS V15.00,2015-08-28 15:24:00,
2015-08-28 10:29:00,62.1,59.5,30.09,South,173,0.0,0.0,91,0.00,,OVC200,0.00,VWS V15.00,2015-08-28 15:29:00,
2015-08-28 10:33:00,62.3,60.0,30.09,South,173,0.0,0.0,92,0.00,,OVC200,0.00,VWS V15.00,2015-08-28 15:33:00,
2015-08-28 10:38:00,62.5,60.2,30.09,SSW,192,2.0,3.0,92,0.00,,OVC120,0.00,VWS V15.00,2015-08-28 15:38:00,
2015-08-28 10:43:00,62.7,60.3,30.10,SSW,192,0.0,3.0,92,0.00,,OVC120,0.00,VWS V15.00,2015-08-28 15:43:00,
2015-08-28 10:48:00,62.8,60.1,30.10,SSW,192,0.0,4.0,91,0.00,,OVC120,0.00,VWS V15.00,2015-08-28 15:48:00,
2015-08-28 10:53:00,63.0,60.3,30.10,SSW,198,0.0,4.0,91,0.00,,OVC120,0.00,VWS V15.00,2015-08-28 15:53:00,
2015-08-28 10:58:00,63.1,60.4,30.10,SSW,196,0.0,4.0,91,0.00,,OVC120,0.00,VWS V15.00,2015-08-28 15:58:00,
2015-08-28 11:03:00,63.2,60.5,30.10,SSW,196,0.0,0.0,91,0.00,,OVC120,0.00,VWS V15.00,2015-08-28 16:03:00,
2015-08-28 11:08:00,63.2,60.5,30.10,South,190,0.0,2.0,91,0.00,,OVC120,0.00,VWS V15.00,2015-08-28 16:08:00,
2015-08-28 11:13:00,63.2,60.5,30.10,South,176,0.0,1.0,91,0.00,,OVC120,0.00,VWS V15.00,2015-08-28 16:13:00,
2015-08-28 11:18:00,63.3,60.6,30.10,South,173,0.0,3.0,91,0.00,,OVC120,0.00,VWS V15.00,2015-08-28 16:18:00,
2015-08-28 11:23:00,63.3,60.6,30.10,South,173,2.0,2.0,91,0.00,,OVC120,0.00,VWS V15.00,2015-08-28 16:23:00,
2015-08-28 11:28:00,63.4,60.7,30.10,South,173,0.0,2.0,91,0.00,,OVC120,0.00,VWS V15.00,2015-08-28 16:28:00,
2015-08-28 11:33:00,63.4,60.7,30.09,South,173,3.0,3.0,91,0.00,,OVC120,0.00,VWS V15.00,2015-08-28 16:33:00,
2015-08-28 11:38:00,63.5,60.8,30.09,South,169,2.0,5.0,91,0.00,,-RA,0.00,VWS V15.00,2015-08-28 16:38:00,
2015-08-28 11:43:00,63.5,60.8,30.09,South,181,4.0,4.0,91,0.00,,-RA,0.00,VWS V15.00,2015-08-28 16:43:00,
2015-08-28 11:48:00,63.6,60.6,30.08,SSW,192,1.0,6.0,90,0.00,,-RA,0.00,VWS V15.00,2015-08-28 16:48:00,
2015-08-28 11:53:00,63.6,60.6,30.08,SSE,157,2.0,6.0,90,0.00,,-RA,0.00,VWS V15.00,2015-08-28 16:53:00,
2015-08-28 11:58:00,63.6,60.6,30.08,SSE,164,5.0,6.0,90,0.00,,-RA,0.00,VWS V15.00,2015-08-28 16:58:00,
2015-08-28 12:03:00,63.7,60.7,30.08,SSE,164,1.0,4.0,90,0.00,,-RA,0.00,VWS V15.00,2015-08-28 17:03:00,
2015-08-28 12:08:00,63.7,60.7,30.08,SSE,166,4.0,5.0,90,0.00,,-RA,0.00,VWS V15.00,2015-08-28 17:08:00,
2015-08-28 12:13:00,63.7,60.4,30.08,SSE,162,2.0,4.0,89,0.00,,-RA,0.00,VWS V15.00,2015-08-28 17:13:00,
2015-08-28 12:18:00,63.8,60.8,30.08,SSW,205,0.0,6.0,90,0.00,,-RA,0.00,VWS V15.00,2015-08-28 17:18:00,
2015-08-28 12:23:00,63.9,61.2,30.08,SSW,204,0.0,0.0,91,0.00,,-RA,0.00,VWS V15.00,2015-08-28 17:23:00,
2015-08-28 12:28:00,63.9,60.9,30.09,South,178,0.0,5.0,90,0.00,,-RA,0.00,VWS V15.00,2015-08-28 17:28:00,
2015-08-28 12:33:00,64.0,61.3,30.09,WSW,244,1.0,3.0,91,0.00,,-RA,0.00,VWS V15.00,2015-08-28 17:33:00,
2015-08-28 12:38:00,64.1,61.4,30.09,WSW,244,1.0,3.0,91,0.00,,-RA,0.00,VWS V15.00,2015-08-28 17:38:00,
2015-08-28 12:43:00,64.2,61.5,30.09,SSW,197,2.0,4.0,91,0.00,,-RA,0.00,VWS V15.00,2015-08-28 17:43:00,